createdAt,value
2022-08-25T00:00:14.078Z,2.83
2022-08-25T00:02:43.830Z,2.92
2022-08-25T00:05:26.244Z,2.55
2022-08-25T00:07:54.518Z,2.80
2022-08-25T00:10:21.755Z,2.67
2022-08-25T00:12:48.455Z,2.45
2022-08-25T00:15:15.644Z,2.80
2022-08-25T00:17:42.532Z,2.65
2022-08-25T00:20:10.227Z,3.10
2022-08-25T00:22:36.887Z,2.90
2022-08-25T00:25:04.008Z,3.90
2022-08-25T00:27:31.056Z,3.25
2022-08-25T00:29:57.636Z,3.15
2022-08-25T00:32:25.595Z,3.53
2022-08-25T00:34:52.265Z,3.10
2022-08-25T00:37:19.368Z,2.83
2022-08-25T00:39:46.313Z,2.67
2022-08-25T00:42:15.993Z,2.90
2022-08-25T00:44:43.975Z,2.60
2022-08-25T00:47:11.098Z,2.97
2022-08-25T00:49:49.554Z,2.95
2022-08-25T00:52:32.581Z,2.90
2022-08-25T00:55:08.224Z,2.80
2022-08-25T00:57:43.246Z,3.30
2022-08-25T01:00:14.290Z,3.30
2022-08-25T01:02:40.994Z,2.83
2022-08-25T01:05:08.247Z,2.83
2022-08-25T01:07:36.492Z,3.05
2022-08-25T01:10:04.922Z,2.80
2022-08-25T01:12:31.550Z,2.67
2022-08-25T01:14:59.138Z,3.20
2022-08-25T01:17:28.360Z,2.67
2022-08-25T01:19:55.914Z,2.95
2022-08-25T01:22:22.686Z,3.25
2022-08-25T01:25:04.029Z,3.38
2022-08-25T01:27:30.727Z,3.00
2022-08-25T01:29:58.066Z,3.60
2022-08-25T01:32:25.307Z,3.33
2022-08-25T01:34:52.088Z,3.00
2022-08-25T01:37:19.297Z,3.05
2022-08-25T01:39:46.665Z,3.25
2022-08-25T01:42:19.999Z,3.03
2022-08-25T01:44:48.069Z,2.90
2022-08-25T01:47:16.074Z,2.60
2022-08-25T01:49:43.045Z,3.25
2022-08-25T01:52:19.344Z,3.20
2022-08-25T01:54:47.972Z,2.88
2022-08-25T01:57:16.014Z,3.10
2022-08-25T01:59:42.899Z,3.30
2022-08-25T02:02:09.904Z,3.15
2022-08-25T02:04:38.229Z,3.20
2022-08-25T02:07:07.965Z,3.30
2022-08-25T02:09:36.483Z,3.13
2022-08-25T02:12:04.362Z,3.17
2022-08-25T02:14:31.055Z,3.30
2022-08-25T02:16:57.767Z,3.10
2022-08-25T02:19:26.047Z,3.15
2022-08-25T02:21:53.414Z,2.80
2022-08-25T02:24:20.197Z,2.97
2022-08-25T02:26:46.973Z,2.92
2022-08-25T02:29:13.942Z,3.00
2022-08-25T02:31:41.101Z,3.20
2022-08-25T02:34:09.212Z,3.15
2022-08-25T02:36:37.441Z,2.75
2022-08-25T02:39:05.983Z,2.90
2022-08-25T02:41:33.695Z,3.13
2022-08-25T02:44:02.389Z,3.42
2022-08-25T02:46:29.747Z,3.33
2022-08-25T02:48:56.944Z,2.70
2022-08-25T02:51:25.567Z,3.00
2022-08-25T02:53:52.761Z,3.10
2022-08-25T02:56:20.726Z,3.28
2022-08-25T02:58:48.088Z,2.97
2022-08-25T03:01:16.293Z,3.40
2022-08-25T03:03:45.856Z,3.75
2022-08-25T03:06:17.077Z,3.60
2022-08-25T03:08:44.567Z,3.20
2022-08-25T03:11:11.875Z,3.72
2022-08-25T03:13:38.796Z,3.15
2022-08-25T03:16:10.779Z,3.30
2022-08-25T03:18:39.973Z,3.20
2022-08-25T03:21:07.607Z,3.20
2022-08-25T03:23:34.268Z,3.20
2022-08-25T03:26:19.364Z,3.13
2022-08-25T03:28:46.030Z,3.45
2022-08-25T03:31:15.610Z,3.60
2022-08-25T03:33:43.194Z,3.20
2022-08-25T03:36:12.190Z,3.30
2022-08-25T03:38:39.905Z,3.15
2022-08-25T03:41:16.343Z,3.28
2022-08-25T03:43:43.259Z,3.13
2022-08-25T03:46:16.677Z,3.95
2022-08-25T03:48:43.785Z,3.78
2022-08-25T03:51:10.435Z,3.25
2022-08-25T03:53:37.167Z,3.40
2022-08-25T03:56:04.581Z,3.75
2022-08-25T03:58:31.306Z,3.70
2022-08-25T04:01:00.512Z,3.80
2022-08-25T04:03:27.436Z,3.03
2022-08-25T04:05:54.100Z,3.72
2022-08-25T04:08:23.420Z,3.85
2022-08-25T04:10:50.047Z,3.58
2022-08-25T04:13:16.704Z,3.67
2022-08-25T04:15:43.967Z,4.10
2022-08-25T04:18:11.728Z,4.05
2022-08-25T04:20:38.879Z,4.32
2022-08-25T04:23:07.108Z,3.75
2022-08-25T04:25:33.884Z,3.95
2022-08-25T04:28:00.523Z,3.33
2022-08-25T04:30:27.195Z,3.47
2022-08-25T04:32:53.956Z,3.53
2022-08-25T04:35:21.357Z,3.63
2022-08-25T04:37:49.013Z,4.25
2022-08-25T04:40:15.801Z,3.92
2022-08-25T04:42:42.587Z,4.65
2022-08-25T04:45:09.424Z,3.97
2022-08-25T04:47:40.028Z,4.03
2022-08-25T04:50:07.787Z,4.47
2022-08-25T04:52:34.642Z,4.40
2022-08-25T04:55:01.494Z,4.32
2022-08-25T04:57:28.381Z,4.47
2022-08-25T04:59:55.671Z,4.40
2022-08-25T05:02:23.000Z,4.28
2022-08-25T05:04:49.638Z,5.00
2022-08-25T05:07:16.378Z,4.50
2022-08-25T05:09:43.074Z,4.47
2022-08-25T05:12:09.896Z,5.03
2022-08-25T05:14:38.797Z,5.32
2022-08-25T05:17:08.975Z,4.80
2022-08-25T05:19:36.527Z,5.00
2022-08-25T05:22:03.418Z,4.55
2022-08-25T05:24:30.170Z,4.75
2022-08-25T05:26:57.732Z,4.97
2022-08-25T05:29:24.466Z,4.80
2022-08-25T05:31:51.240Z,4.78
2022-08-25T05:34:19.477Z,4.75
2022-08-25T05:36:46.741Z,5.70
2022-08-25T05:39:13.456Z,5.65
2022-08-25T05:41:40.665Z,6.53
2022-08-25T05:44:07.726Z,6.65
2022-08-25T05:46:34.496Z,6.78
2022-08-25T05:49:01.112Z,6.63
2022-08-25T05:51:27.889Z,5.95
2022-08-25T05:53:54.823Z,6.10
2022-08-25T05:56:21.664Z,6.70
2022-08-25T05:58:48.513Z,7.63
2022-08-25T06:01:45.146Z,7.53
2022-08-25T06:04:12.946Z,7.80
2022-08-25T06:06:40.466Z,8.07
2022-08-25T06:09:09.744Z,7.30
2022-08-25T06:11:40.864Z,8.98
2022-08-25T06:14:11.208Z,7.95
2022-08-25T06:16:40.690Z,8.30
2022-08-25T06:19:11.394Z,8.30
2022-08-25T06:21:40.933Z,8.13
2022-08-25T06:24:14.715Z,8.25
2022-08-25T06:26:42.409Z,9.45
2022-08-25T06:29:09.008Z,8.73
2022-08-25T06:31:35.737Z,9.63
2022-08-25T06:34:02.457Z,9.80
2022-08-25T06:36:29.115Z,9.77
2022-08-25T06:38:55.717Z,11.45
2022-08-25T06:41:22.663Z,12.32
2022-08-25T06:43:54.130Z,14.82
2022-08-25T06:46:35.877Z,12.68
2022-08-25T06:49:04.905Z,13.95
2022-08-25T06:51:31.797Z,13.38
2022-08-25T06:53:58.613Z,13.32
2022-08-25T06:56:25.787Z,13.77
2022-08-25T06:58:53.572Z,15.02
2022-08-25T07:01:27.223Z,13.10
2022-08-25T07:03:59.923Z,13.55
2022-08-25T07:06:31.903Z,13.30
2022-08-25T07:08:59.603Z,12.93
2022-08-25T07:11:26.534Z,11.93
2022-08-25T07:13:53.376Z,12.38
2022-08-25T07:16:20.857Z,12.32
2022-08-25T07:18:48.175Z,12.75
2022-08-25T07:21:15.627Z,12.13
2022-08-25T07:23:42.876Z,12.07
2022-08-25T07:26:36.350Z,12.63
2022-08-25T07:29:09.971Z,13.57
2022-08-25T07:31:37.560Z,11.93
2022-08-25T07:34:23.229Z,12.77
2022-08-25T07:36:49.892Z,13.05
2022-08-25T07:39:17.557Z,11.75
2022-08-25T07:41:52.436Z,12.68
2022-08-25T07:44:20.403Z,12.13
2022-08-25T07:46:47.145Z,9.43
2022-08-25T07:52:04.390Z,11.35
2022-08-25T07:54:34.551Z,11.90
2022-08-25T07:57:03.487Z,11.88
2022-08-25T07:59:31.211Z,11.38
2022-08-25T08:02:18.362Z,10.88
2022-08-25T08:04:49.320Z,9.88
2022-08-25T08:07:18.700Z,9.40
2022-08-25T08:09:45.655Z,9.93
2022-08-25T08:12:12.495Z,9.65
2022-08-25T08:14:39.576Z,8.43
2022-08-25T08:17:12.750Z,8.85
2022-08-25T08:19:43.082Z,8.80
2022-08-25T08:22:15.109Z,7.50
2022-08-25T08:24:56.133Z,9.02
2022-08-25T08:27:24.544Z,8.02
2022-08-25T08:29:52.077Z,9.80
2022-08-25T08:32:18.851Z,9.35
2022-08-25T08:34:47.087Z,9.63
2022-08-25T08:37:18.626Z,8.13
2022-08-25T08:39:47.876Z,8.07
2022-08-25T08:42:33.310Z,8.90
2022-08-25T08:45:21.320Z,8.85
2022-08-25T08:48:10.329Z,7.68
2022-08-25T08:50:51.773Z,8.20
2022-08-25T08:53:21.658Z,7.45
2022-08-25T08:55:52.820Z,7.05
2022-08-25T08:58:32.977Z,6.57
2022-08-25T09:01:01.834Z,6.40
2022-08-25T09:03:41.839Z,6.55
2022-08-25T09:06:14.415Z,6.10
2022-08-25T09:08:44.960Z,6.35
2022-08-25T09:11:12.212Z,6.18
2022-08-25T09:14:01.500Z,5.88
2022-08-25T09:16:56.309Z,6.03
2022-08-25T09:19:23.869Z,5.80
2022-08-25T09:22:33.911Z,6.53
2022-08-25T09:25:53.245Z,7.88
2022-08-25T09:28:39.853Z,7.38
2022-08-25T09:31:19.701Z,6.50
2022-08-25T09:33:46.574Z,5.72
2022-08-25T09:36:13.872Z,5.97
2022-08-25T09:38:41.417Z,7.43
2022-08-25T09:41:08.928Z,6.00
2022-08-25T09:43:40.432Z,5.80
2022-08-25T09:46:16.124Z,6.05
2022-08-25T09:48:45.306Z,5.13
2022-08-25T09:51:23.809Z,5.35
2022-08-25T09:54:02.810Z,5.72
2022-08-25T09:56:50.664Z,5.75
2022-08-25T09:59:34.444Z,6.15
2022-08-25T10:02:26.443Z,5.80
2022-08-25T10:04:54.698Z,5.22
2022-08-25T10:07:26.770Z,5.78
2022-08-25T10:10:01.179Z,5.35
2022-08-25T10:12:42.338Z,5.20
2022-08-25T10:15:17.215Z,5.28
2022-08-25T10:18:20.171Z,5.45
2022-08-25T10:21:08.376Z,5.82
2022-08-25T10:23:38.867Z,5.50
2022-08-25T10:26:13.449Z,5.78
2022-08-25T10:29:06.928Z,5.22
2022-08-25T10:31:41.285Z,5.20
2022-08-25T10:34:51.623Z,4.80
2022-08-25T10:37:26.393Z,5.38
2022-08-25T10:40:28.529Z,5.00
2022-08-25T10:43:35.797Z,4.72
2022-08-25T10:46:16.512Z,4.80
2022-08-25T10:49:16.405Z,4.80
2022-08-25T10:52:00.396Z,5.30
2022-08-25T10:54:45.654Z,4.60
2022-08-25T10:57:30.747Z,4.57
2022-08-25T11:00:07.979Z,4.57
2022-08-25T11:02:57.278Z,4.55
2022-08-25T11:05:45.415Z,4.70
2022-08-25T11:08:20.014Z,4.50
2022-08-25T11:11:13.165Z,4.53
2022-08-25T11:14:21.147Z,4.70
2022-08-25T11:17:11.996Z,4.15
2022-08-25T11:19:43.984Z,4.25
2022-08-25T11:22:19.360Z,4.75
2022-08-25T11:25:00.027Z,4.15
2022-08-25T11:27:42.294Z,4.88
2022-08-25T11:32:49.329Z,4.28
2022-08-25T11:35:19.290Z,3.95
2022-08-25T11:37:57.342Z,3.97
2022-08-25T11:40:53.633Z,4.32
2022-08-25T11:43:50.835Z,4.18
2022-08-25T11:46:26.153Z,4.28
2022-08-25T11:49:15.304Z,4.30
2022-08-25T11:51:48.378Z,3.97
2022-08-25T11:54:43.094Z,4.28
2022-08-25T11:57:22.226Z,4.15
2022-08-25T11:59:55.826Z,4.07
2022-08-25T12:02:40.855Z,3.85
2022-08-25T12:05:15.580Z,3.63
2022-08-25T12:07:52.355Z,4.05
2022-08-25T12:10:22.843Z,3.78
2022-08-25T12:12:49.441Z,3.85
2022-08-25T12:15:32.805Z,4.13
2022-08-25T12:18:21.919Z,4.05
2022-08-25T12:20:57.489Z,4.35
2022-08-25T12:23:34.694Z,4.25
2022-08-25T12:26:11.160Z,4.65
2022-08-25T12:28:55.906Z,3.90
2022-08-25T12:31:43.133Z,4.00
2022-08-25T12:34:26.819Z,3.90
2022-08-25T12:37:06.489Z,3.83
2022-08-25T12:39:43.099Z,4.10
2022-08-25T12:42:26.162Z,3.78
2022-08-25T12:45:14.119Z,3.97
2022-08-25T12:47:47.546Z,3.47
2022-08-25T12:50:36.414Z,4.05
2022-08-25T12:53:16.003Z,3.60
2022-08-25T12:55:49.530Z,4.10
2022-08-25T12:58:17.065Z,3.63
2022-08-25T13:01:13.293Z,3.40
2022-08-25T13:04:41.986Z,3.25
2022-08-25T13:07:15.495Z,3.22
2022-08-25T13:10:01.915Z,3.28
2022-08-25T13:12:51.287Z,3.30
2022-08-25T13:15:47.014Z,3.35
2022-08-25T13:18:21.541Z,3.25
2022-08-25T13:20:52.719Z,3.03
2022-08-25T13:23:25.886Z,3.70
2022-08-25T13:25:54.542Z,2.83
2022-08-25T13:28:29.836Z,3.33
2022-08-25T13:31:00.128Z,3.13
2022-08-25T13:33:27.912Z,3.10
2022-08-25T13:36:15.509Z,2.97
2022-08-25T13:38:45.928Z,3.28
2022-08-25T13:41:23.441Z,3.20
2022-08-25T13:43:56.578Z,3.10
2022-08-25T13:46:27.831Z,3.50
2022-08-25T13:49:07.001Z,3.40
2022-08-25T13:51:37.093Z,3.50
2022-08-25T13:54:08.476Z,3.20
2022-08-25T13:56:41.142Z,3.30
2022-08-25T13:59:25.772Z,3.58
2022-08-25T14:01:54.606Z,3.50
2022-08-25T14:04:26.419Z,3.47
2022-08-25T14:07:13.930Z,3.33
2022-08-25T14:09:48.899Z,3.30
2022-08-25T14:12:33.768Z,3.00
2022-08-25T14:15:01.607Z,3.00
2022-08-25T14:17:39.707Z,2.97
2022-08-25T14:20:29.274Z,3.08
2022-08-25T14:22:59.463Z,2.83
2022-08-25T14:25:32.661Z,3.00
2022-08-25T14:28:07.248Z,2.90
2022-08-25T14:30:39.318Z,3.00
2022-08-25T14:33:06.956Z,3.10
2022-08-25T14:35:34.373Z,2.70
2022-08-25T14:38:07.658Z,2.85
2022-08-25T14:40:35.562Z,2.90
2022-08-25T14:43:02.442Z,2.63
2022-08-25T14:45:31.314Z,2.60
2022-08-25T14:48:10.210Z,2.60
2022-08-25T14:50:38.224Z,2.50
2022-08-25T14:53:10.392Z,2.30
2022-08-25T14:55:37.756Z,2.45
2022-08-25T14:58:04.748Z,2.80
2022-08-25T15:00:36.813Z,3.20
2022-08-25T15:03:03.970Z,2.72
2022-08-25T15:05:31.881Z,2.47
2022-08-25T15:08:17.182Z,2.67
2022-08-25T15:10:44.264Z,2.70
2022-08-25T15:13:11.087Z,2.55
2022-08-25T15:15:52.558Z,2.22
2022-08-25T15:18:20.880Z,2.60
2022-08-25T15:20:50.183Z,2.70
2022-08-25T15:23:18.776Z,2.85
2022-08-25T15:25:47.405Z,2.70
2022-08-25T15:28:17.284Z,2.38
2022-08-25T15:30:45.942Z,3.00
2022-08-25T15:33:13.627Z,2.53
2022-08-25T15:35:40.622Z,2.72
2022-08-25T15:38:08.201Z,2.70
2022-08-25T15:40:37.630Z,2.40
2022-08-25T15:43:07.772Z,2.70
2022-08-25T15:45:36.222Z,2.70
2022-08-25T15:48:04.495Z,2.65
2022-08-25T15:50:33.840Z,2.53
2022-08-25T15:53:00.788Z,2.53
2022-08-25T15:55:28.067Z,2.40
2022-08-25T15:57:55.661Z,2.53
2022-08-25T16:00:22.894Z,2.25
2022-08-25T16:02:50.256Z,2.30
2022-08-25T16:05:17.071Z,2.15
2022-08-25T16:07:46.087Z,2.15
2022-08-25T16:10:18.706Z,2.50
2022-08-25T16:12:45.517Z,2.50
2022-08-25T16:15:12.494Z,2.22
2022-08-25T16:17:40.962Z,2.38
2022-08-25T16:20:13.739Z,2.20
2022-08-25T16:22:41.043Z,2.63
2022-08-25T16:25:08.528Z,2.25
2022-08-25T16:27:38.712Z,2.20
2022-08-25T16:30:08.156Z,2.60
2022-08-25T16:32:35.084Z,2.47
2022-08-25T16:35:02.628Z,2.63
2022-08-25T16:37:29.948Z,2.53
2022-08-25T16:39:57.408Z,2.30
2022-08-25T16:42:24.538Z,2.20
2022-08-25T16:44:53.833Z,2.40
2022-08-25T16:47:25.177Z,2.25
2022-08-25T16:52:39.282Z,2.22
2022-08-25T16:55:14.362Z,2.67
2022-08-25T16:57:47.782Z,2.42
2022-08-25T17:00:18.158Z,2.40
2022-08-25T17:02:46.309Z,2.50
2022-08-25T17:05:14.750Z,2.38
2022-08-25T17:07:41.536Z,2.47
2022-08-25T17:10:12.432Z,2.55
2022-08-25T17:12:40.555Z,2.47
2022-08-25T17:15:07.641Z,2.20
2022-08-25T17:17:36.463Z,2.75
2022-08-25T17:20:04.820Z,4.07
2022-08-25T17:22:31.845Z,12.60
2022-08-25T17:25:00.974Z,21.45
2022-08-25T17:27:28.255Z,19.55
2022-08-25T17:29:55.947Z,16.20
2022-08-25T17:32:30.210Z,6.63
2022-08-25T17:34:57.739Z,2.95
2022-08-25T17:37:24.681Z,2.70
2022-08-25T17:39:56.735Z,3.08
2022-08-25T17:42:31.368Z,3.03
2022-08-25T17:44:58.283Z,2.67
2022-08-25T17:47:26.899Z,2.83
2022-08-25T17:49:54.330Z,2.50
2022-08-25T17:52:25.400Z,2.83
2022-08-25T17:54:52.691Z,2.97
2022-08-25T17:57:20.732Z,3.17
2022-08-25T17:59:48.031Z,3.60
2022-08-25T18:02:14.885Z,3.22
2022-08-25T18:04:41.731Z,3.50
2022-08-25T18:07:08.493Z,3.13
2022-08-25T18:09:35.254Z,3.20
2022-08-25T18:12:02.132Z,2.97
2022-08-25T18:14:30.054Z,3.20
2022-08-25T18:16:57.306Z,2.80
2022-08-25T18:19:24.206Z,3.20
2022-08-25T18:21:51.848Z,3.10
2022-08-25T18:24:19.516Z,3.60
2022-08-25T18:26:46.883Z,3.78
2022-08-25T18:29:13.576Z,4.68
2022-08-25T18:31:41.756Z,4.22
2022-08-25T18:34:11.166Z,4.88
2022-08-25T18:36:38.833Z,4.97
2022-08-25T18:39:25.361Z,4.70
2022-08-25T18:41:52.187Z,4.50
2022-08-25T18:44:19.325Z,4.97
2022-08-25T18:46:46.571Z,5.10
2022-08-25T18:49:16.135Z,6.45
2022-08-25T18:51:44.953Z,6.45
2022-08-25T18:54:23.212Z,6.63
2022-08-25T18:56:52.639Z,6.25
2022-08-25T18:59:19.974Z,6.95
2022-08-25T19:01:50.985Z,6.20
2022-08-25T19:04:17.693Z,6.45
2022-08-25T19:06:44.837Z,6.75
2022-08-25T19:09:11.854Z,6.65
2022-08-25T19:11:38.657Z,6.28
2022-08-25T19:14:12.178Z,6.60
2022-08-25T19:16:42.458Z,5.40
2022-08-25T19:19:13.242Z,5.50
2022-08-25T19:21:41.094Z,5.72
2022-08-25T19:24:10.154Z,5.93
2022-08-25T19:26:37.600Z,5.82
2022-08-25T19:29:08.911Z,5.38
2022-08-25T19:31:39.325Z,8.00
2022-08-25T19:34:07.513Z,6.03
2022-08-25T19:36:34.573Z,8.77
2022-08-25T19:39:01.995Z,6.65
2022-08-25T19:41:31.285Z,6.05
2022-08-25T19:43:58.457Z,6.22
2022-08-25T19:46:32.655Z,6.40
2022-08-25T19:49:09.590Z,7.22
2022-08-25T19:51:38.431Z,9.10
2022-08-25T19:54:09.281Z,6.25
2022-08-25T19:56:43.592Z,6.28
2022-08-25T19:59:22.347Z,6.13
2022-08-25T20:01:50.209Z,6.10
2022-08-25T20:04:17.192Z,6.63
2022-08-25T20:06:43.921Z,6.30
2022-08-25T20:09:29.343Z,6.45
2022-08-25T20:12:02.199Z,5.82
2022-08-25T20:14:29.235Z,6.43
2022-08-25T20:16:55.862Z,6.15
2022-08-25T20:19:22.552Z,6.43
2022-08-25T20:21:49.248Z,6.70
2022-08-25T20:24:34.264Z,6.50
2022-08-25T20:27:01.485Z,7.35
2022-08-25T20:29:29.667Z,6.80
2022-08-25T20:31:56.478Z,6.45
2022-08-25T20:34:23.204Z,6.85
2022-08-25T20:36:50.781Z,6.95
2022-08-25T20:39:18.070Z,7.00
2022-08-25T20:41:48.256Z,7.25
2022-08-25T20:44:16.396Z,7.80
2022-08-25T20:46:44.696Z,6.88
2022-08-25T20:49:11.844Z,7.78
2022-08-25T20:51:38.666Z,7.47
2022-08-25T20:54:05.624Z,6.95
2022-08-25T20:56:32.531Z,7.20
2022-08-25T20:59:02.196Z,6.75
2022-08-25T21:01:39.788Z,6.75
2022-08-25T21:04:15.344Z,6.78
2022-08-25T21:06:43.019Z,6.50
2022-08-25T21:09:16.075Z,6.75
2022-08-25T21:11:45.034Z,7.07
2022-08-25T21:14:12.887Z,7.00
2022-08-25T21:16:40.978Z,6.32
2022-08-25T21:19:08.841Z,6.57
2022-08-25T21:21:38.684Z,6.45
2022-08-25T21:24:09.824Z,6.82
2022-08-25T21:26:37.820Z,6.75
2022-08-25T21:29:16.083Z,6.68
2022-08-25T21:31:42.945Z,6.32
2022-08-25T21:34:11.659Z,6.28
2022-08-25T21:36:39.329Z,6.30
2022-08-25T21:39:06.118Z,6.32
2022-08-25T21:41:34.618Z,6.13
2022-08-25T21:44:01.992Z,6.25
2022-08-25T21:46:31.230Z,6.10
2022-08-25T21:48:58.707Z,6.45
2022-08-25T21:51:32.342Z,6.40
2022-08-25T21:54:11.065Z,6.28
2022-08-25T21:56:39.671Z,6.72
2022-08-25T21:59:08.720Z,6.15
2022-08-25T22:01:35.721Z,6.20
2022-08-25T22:04:03.385Z,6.57
2022-08-25T22:06:30.409Z,6.20
2022-08-25T22:08:57.884Z,6.45
2022-08-25T22:11:26.639Z,7.22
2022-08-25T22:13:55.047Z,6.93
2022-08-25T22:16:24.576Z,6.15
2022-08-25T22:18:51.772Z,6.60
2022-08-25T22:21:20.214Z,6.53
2022-08-25T22:23:46.849Z,6.13
2022-08-25T22:26:17.399Z,6.32
2022-08-25T22:28:49.388Z,6.03
2022-08-25T22:31:20.567Z,6.32
2022-08-25T22:33:48.816Z,6.07
2022-08-25T22:36:24.776Z,6.30
2022-08-25T22:38:52.623Z,6.10
2022-08-25T22:41:21.422Z,6.40
2022-08-25T22:43:49.747Z,7.00
2022-08-25T22:46:19.521Z,6.40
2022-08-25T22:48:46.675Z,6.43
2022-08-25T22:51:23.198Z,6.40
2022-08-25T22:53:50.711Z,6.80
2022-08-25T22:56:20.920Z,6.95
2022-08-25T22:58:51.427Z,6.95
2022-08-25T23:01:20.103Z,6.95
2022-08-25T23:03:47.704Z,6.72
2022-08-25T23:06:20.715Z,7.20
2022-08-25T23:08:50.293Z,6.63
2022-08-25T23:11:18.308Z,6.63
2022-08-25T23:13:45.682Z,6.93
2022-08-25T23:16:13.158Z,6.80
2022-08-25T23:18:43.982Z,6.90
2022-08-25T23:21:35.005Z,6.70
2022-08-25T23:24:05.613Z,6.38
2022-08-25T23:26:36.381Z,7.03
2022-08-25T23:29:13.621Z,7.00
2022-08-25T23:31:45.065Z,7.10
2022-08-25T23:34:11.900Z,6.57
2022-08-25T23:36:40.355Z,6.82
2022-08-25T23:39:07.866Z,6.75
2022-08-25T23:41:34.980Z,7.43
2022-08-25T23:44:05.622Z,7.35
2022-08-25T23:46:35.080Z,7.13
2022-08-25T23:49:03.968Z,7.15
2022-08-25T23:51:37.219Z,7.80
2022-08-25T23:54:06.497Z,6.60
2022-08-25T23:56:36.070Z,7.60
2022-08-25T23:59:04.366Z,7.50
